createdAt,value
2022-07-29T00:00:47.652Z,100507.39
2022-07-29T00:01:52.517Z,100508.36
2022-07-29T00:02:56.094Z,100507.38
2022-07-29T00:03:59.585Z,100509.00
2022-07-29T00:05:07.440Z,100516.27
2022-07-29T00:06:13.632Z,100518.59
2022-07-29T00:07:18.734Z,100519.36
2022-07-29T00:08:22.047Z,100526.14
2022-07-29T00:09:30.685Z,100517.85
2022-07-29T00:10:35.144Z,100522.13
2022-07-29T00:11:39.376Z,100527.53
2022-07-29T00:12:43.056Z,100520.90
2022-07-29T00:13:50.780Z,100519.59
2022-07-29T00:14:54.526Z,100521.91
2022-07-29T00:15:58.047Z,100521.05
2022-07-29T00:17:03.386Z,100519.90
2022-07-29T00:18:10.410Z,100521.28
2022-07-29T00:19:15.962Z,100525.14
2022-07-29T00:20:19.622Z,100520.36
2022-07-29T00:21:24.400Z,100528.09
2022-07-29T00:22:30.245Z,100523.11
2022-07-29T00:23:36.817Z,100523.17
2022-07-29T00:24:45.186Z,100531.75
2022-07-29T00:25:48.870Z,100530.72
2022-07-29T00:26:52.824Z,100529.20
2022-07-29T00:53:37.365Z,100521.27
2022-07-29T00:54:44.483Z,100521.41
2022-07-29T00:55:47.518Z,100520.41
2022-07-29T00:56:51.810Z,100510.84
2022-07-29T00:57:55.976Z,100518.08
2022-07-29T00:59:00.733Z,100508.84
2022-07-29T01:00:13.470Z,100512.08
2022-07-29T01:01:17.006Z,100520.16
2022-07-29T01:02:19.803Z,100511.37
2022-07-29T01:03:23.711Z,100514.69
2022-07-29T01:04:27.414Z,100523.47
2022-07-29T01:05:50.729Z,100522.47
2022-07-29T01:06:39.343Z,100522.70
2022-07-29T01:07:46.334Z,100520.70
2022-07-29T01:08:55.078Z,100523.24
2022-07-29T01:10:02.801Z,100523.91
2022-07-29T01:11:06.341Z,100510.77
2022-07-29T01:12:11.834Z,100511.42
2022-07-29T01:13:24.110Z,100517.00
2022-07-29T01:14:36.282Z,100517.77
2022-07-29T01:15:48.555Z,100514.84
2022-07-29T01:16:54.951Z,100520.88
2022-07-29T01:18:05.514Z,100520.56
2022-07-29T01:21:03.443Z,100516.77
2022-07-29T01:22:44.654Z,100520.92
2022-07-29T01:24:15.558Z,100524.02
2022-07-29T01:25:45.788Z,100519.57
2022-07-29T01:27:18.219Z,100529.80
2022-07-29T01:28:42.133Z,100529.34
2022-07-29T01:29:58.840Z,100526.16
2022-07-29T01:31:06.732Z,100525.47
2022-07-29T01:33:55.246Z,100531.86
2022-07-29T01:35:24.058Z,100526.17
2022-07-29T01:36:33.239Z,100531.20
2022-07-29T01:37:47.623Z,100532.50
2022-07-29T01:39:00.344Z,100530.75
2022-07-29T01:40:07.419Z,100530.47
2022-07-29T01:41:14.743Z,100523.98
2022-07-29T01:42:28.198Z,100526.45
2022-07-29T01:43:41.725Z,100526.06
2022-07-29T01:45:20.117Z,100522.45
2022-07-29T01:46:33.573Z,100525.58
2022-07-29T01:47:40.729Z,100526.02
2022-07-29T01:48:50.506Z,100525.54
2022-07-29T01:49:58.263Z,100530.84
2022-07-29T01:51:11.452Z,100530.02
2022-07-29T01:52:30.553Z,100527.16
2022-07-29T01:53:43.140Z,100534.09
2022-07-29T01:54:58.625Z,100529.08
2022-07-29T01:56:04.581Z,100533.47
2022-07-29T01:57:11.142Z,100530.48
2022-07-29T01:58:20.979Z,100528.05
2022-07-29T01:59:27.041Z,100533.66
2022-07-29T02:00:34.952Z,100528.42
2022-07-29T02:01:43.410Z,100536.64
2022-07-29T02:02:50.269Z,100532.41
2022-07-29T02:03:56.219Z,100537.79
2022-07-29T02:05:03.676Z,100533.32
2022-07-29T02:06:10.752Z,100531.03
2022-07-29T02:07:17.598Z,100531.73
2022-07-29T02:08:22.416Z,100532.88
2022-07-29T02:09:32.058Z,100540.61
2022-07-29T02:10:37.886Z,100538.91
2022-07-29T02:11:43.837Z,100541.48
2022-07-29T02:12:50.719Z,100541.53
2022-07-29T02:13:57.896Z,100543.95
2022-07-29T02:15:03.857Z,100544.42
2022-07-29T02:16:11.223Z,100543.97
2022-07-29T02:17:17.156Z,100547.37
2022-07-29T02:18:22.998Z,100532.36
2022-07-29T02:19:28.705Z,100536.61
2022-07-29T02:20:35.122Z,100544.28
2022-07-29T02:21:40.661Z,100535.87
2022-07-29T02:22:46.692Z,100549.88
2022-07-29T02:23:54.690Z,100549.41
2022-07-29T02:25:00.979Z,100544.59
2022-07-29T02:26:05.217Z,100550.67
2022-07-29T02:27:14.129Z,100551.75
2022-07-29T02:28:20.701Z,100551.75
2022-07-29T02:29:28.227Z,100554.36
2022-07-29T02:30:33.561Z,100557.75
2022-07-29T02:31:39.309Z,100551.25
2022-07-29T02:32:43.809Z,100551.86
2022-07-29T02:33:47.913Z,100551.16
2022-07-29T02:34:53.001Z,100555.84
2022-07-29T02:35:57.687Z,100558.81
2022-07-29T02:37:04.861Z,100558.81
2022-07-29T02:38:29.797Z,100555.56
2022-07-29T02:39:34.216Z,100553.20
2022-07-29T02:40:39.305Z,100559.71
2022-07-29T02:41:57.327Z,100559.11
2022-07-29T02:43:03.349Z,100557.41
2022-07-29T02:44:21.594Z,100557.68
2022-07-29T02:45:25.554Z,100557.25
2022-07-29T02:46:32.122Z,100557.10
2022-07-29T02:47:41.906Z,100561.63
2022-07-29T02:48:49.789Z,100550.11
2022-07-29T02:49:56.811Z,100556.91
2022-07-29T02:51:12.378Z,100558.98
2022-07-29T02:53:40.788Z,100549.52
2022-07-29T02:54:46.996Z,100552.91
2022-07-29T02:56:04.835Z,100551.63
2022-07-29T02:57:31.237Z,100555.53
2022-07-29T02:58:44.644Z,100555.94
2022-07-29T02:59:51.391Z,100553.16
2022-07-29T03:00:57.544Z,100557.84
2022-07-29T03:02:12.962Z,100566.13
2022-07-29T03:03:18.811Z,100559.45
2022-07-29T03:04:31.071Z,100556.91
2022-07-29T03:05:37.996Z,100559.84
2022-07-29T03:06:46.466Z,100556.66
2022-07-29T03:07:58.043Z,100563.30
2022-07-29T03:09:01.389Z,100563.54
2022-07-29T03:10:13.763Z,100564.14
2022-07-29T03:11:18.620Z,100562.83
2022-07-29T03:12:23.570Z,100565.42
2022-07-29T03:13:29.507Z,100557.08
2022-07-29T03:14:36.060Z,100566.94
2022-07-29T03:15:41.700Z,100561.20
2022-07-29T03:16:45.666Z,100563.63
2022-07-29T03:17:52.730Z,100567.59
2022-07-29T03:18:57.268Z,100567.44
2022-07-29T03:20:01.506Z,100566.59
2022-07-29T03:21:13.078Z,100566.17
2022-07-29T03:22:17.045Z,100568.13
2022-07-29T03:23:25.439Z,100558.64
2022-07-29T03:24:33.012Z,100563.68
2022-07-29T03:25:38.250Z,100563.19
2022-07-29T03:26:42.299Z,100565.13
2022-07-29T03:27:46.302Z,100558.08
2022-07-29T03:28:50.223Z,100562.70
2022-07-29T03:29:54.845Z,100561.62
2022-07-29T03:31:01.728Z,100573.80
2022-07-29T03:32:08.669Z,100567.74
2022-07-29T03:33:13.783Z,100565.05
2022-07-29T03:34:18.075Z,100566.27
2022-07-29T03:35:22.188Z,100566.80
2022-07-29T03:36:30.116Z,100574.24
2022-07-29T03:37:38.452Z,100579.33
2022-07-29T03:38:45.841Z,100569.37
2022-07-29T03:39:53.402Z,100574.09
2022-07-29T03:41:01.931Z,100576.16
2022-07-29T03:42:08.330Z,100573.14
2022-07-29T03:43:17.779Z,100576.19
2022-07-29T03:44:24.469Z,100576.56
2022-07-29T03:45:32.728Z,100575.58
2022-07-29T03:46:47.397Z,100571.40
2022-07-29T03:47:59.950Z,100575.42
2022-07-29T03:49:02.837Z,100578.66
2022-07-29T03:50:14.519Z,100579.66
2022-07-29T03:51:18.733Z,100585.91
2022-07-29T03:52:24.500Z,100576.62
2022-07-29T03:53:27.598Z,100580.34
2022-07-29T03:54:32.092Z,100578.02
2022-07-29T03:55:44.905Z,100583.26
2022-07-29T03:56:51.194Z,100573.78
2022-07-29T03:57:57.038Z,100572.41
2022-07-29T03:59:02.900Z,100577.48
2022-07-29T04:00:08.345Z,100571.72
2022-07-29T04:01:13.877Z,100580.03
2022-07-29T04:02:22.324Z,100575.81
2022-07-29T04:03:23.797Z,100584.60
2022-07-29T04:04:29.259Z,100583.59
2022-07-29T04:06:48.560Z,100585.59
2022-07-29T04:07:52.977Z,100592.31
2022-07-29T04:09:00.196Z,100592.52
2022-07-29T04:10:04.300Z,100590.31
2022-07-29T04:11:08.193Z,100593.05
2022-07-29T04:12:12.261Z,100589.87
2022-07-29T04:13:15.931Z,100589.22
2022-07-29T04:14:23.937Z,100595.47
2022-07-29T04:15:30.947Z,100592.61
2022-07-29T04:16:35.230Z,100590.58
2022-07-29T04:17:40.979Z,100588.88
2022-07-29T04:18:43.801Z,100589.89
2022-07-29T04:19:51.024Z,100596.20
2022-07-29T04:20:54.602Z,100595.35
2022-07-29T04:22:00.162Z,100592.66
2022-07-29T04:23:05.647Z,100604.98
2022-07-29T04:24:09.608Z,100597.52
2022-07-29T04:25:14.019Z,100598.91
2022-07-29T04:26:22.850Z,100599.38
2022-07-29T04:27:30.293Z,100606.13
2022-07-29T04:28:34.556Z,100589.76
2022-07-29T04:29:37.898Z,100595.24
2022-07-29T04:30:43.206Z,100608.34
2022-07-29T04:31:46.722Z,100614.79
2022-07-29T04:32:50.565Z,100607.02
2022-07-29T04:33:55.464Z,100619.57
2022-07-29T04:35:00.082Z,100626.17
2022-07-29T04:36:04.209Z,100633.97
2022-07-29T04:37:08.579Z,100646.55
2022-07-29T04:38:15.795Z,100659.09
2022-07-29T04:39:22.959Z,100668.55
2022-07-29T04:40:25.984Z,100663.61
2022-07-29T04:41:33.288Z,100670.93
2022-07-29T04:42:36.413Z,100670.93
2022-07-29T04:43:41.910Z,100673.81
2022-07-29T04:44:45.660Z,100679.00
2022-07-29T04:45:50.340Z,100680.89
2022-07-29T04:46:55.241Z,100689.30
2022-07-29T04:49:14.513Z,100689.52
2022-07-29T04:50:20.358Z,100688.80
2022-07-29T04:51:25.612Z,100682.91
2022-07-29T04:52:44.037Z,100685.16
2022-07-29T04:53:47.627Z,100685.56
2022-07-29T04:54:51.150Z,100687.58
2022-07-29T04:55:54.721Z,100684.39
2022-07-29T04:56:59.372Z,100686.30
2022-07-29T04:58:01.697Z,100686.47
2022-07-29T04:59:07.154Z,100683.48
2022-07-29T05:01:25.393Z,100682.03
2022-07-29T05:02:29.151Z,100686.20
2022-07-29T05:03:33.042Z,100686.52
2022-07-29T05:04:36.794Z,100686.33
2022-07-29T05:05:40.259Z,100679.31
2022-07-29T05:06:43.902Z,100680.55
2022-07-29T05:07:48.209Z,100686.02
2022-07-29T05:08:51.749Z,100692.10
2022-07-29T05:09:56.406Z,100688.02
2022-07-29T05:11:11.650Z,100683.48
2022-07-29T05:12:07.408Z,100678.05
2022-07-29T05:13:11.102Z,100682.86
2022-07-29T05:14:22.284Z,100631.55
2022-07-29T05:15:27.615Z,100679.91
2022-07-29T05:16:31.117Z,100682.16
2022-07-29T05:17:36.606Z,100683.98
2022-07-29T05:18:40.760Z,100684.85
2022-07-29T05:19:45.274Z,100682.45
2022-07-29T05:20:48.127Z,100688.50
2022-07-29T05:21:54.385Z,100690.30
2022-07-29T05:22:59.878Z,100695.50
2022-07-29T05:24:02.898Z,100693.56
2022-07-29T05:25:13.362Z,100706.70
2022-07-29T05:26:17.562Z,100704.83
2022-07-29T05:27:21.332Z,100693.80
2022-07-29T05:28:31.606Z,100696.34
2022-07-29T05:29:43.983Z,100707.61
2022-07-29T05:30:42.372Z,100701.02
2022-07-29T05:31:47.271Z,100700.87
2022-07-29T05:32:51.852Z,100704.63
2022-07-29T05:33:58.492Z,100702.89
2022-07-29T05:35:02.209Z,100699.25
2022-07-29T05:36:08.592Z,100712.38
2022-07-29T05:37:12.294Z,100710.07
2022-07-29T05:38:17.350Z,100705.80
2022-07-29T05:39:22.180Z,100712.20
2022-07-29T05:40:26.526Z,100719.89
2022-07-29T05:41:38.856Z,100717.58
2022-07-29T05:42:42.728Z,100714.28
2022-07-29T05:43:46.330Z,100713.36
2022-07-29T05:44:51.192Z,100722.55
2022-07-29T05:45:56.301Z,100716.84
2022-07-29T05:47:02.822Z,100714.73
2022-07-29T05:48:10.229Z,100717.94
2022-07-29T05:49:26.965Z,100717.00
2022-07-29T05:50:22.011Z,100707.69
2022-07-29T05:51:27.076Z,100712.66
2022-07-29T05:52:30.667Z,100715.30
2022-07-29T05:53:36.679Z,100721.14
2022-07-29T05:54:45.773Z,100720.89
2022-07-29T05:55:53.854Z,100706.82
2022-07-29T05:56:58.372Z,100703.52
2022-07-29T05:58:03.406Z,100709.06
2022-07-29T05:59:06.913Z,100714.87
2022-07-29T06:00:14.505Z,100709.44
2022-07-29T06:01:18.385Z,100714.25
2022-07-29T06:02:22.157Z,100706.14
2022-07-29T06:03:25.974Z,100712.00
2022-07-29T06:04:30.014Z,100719.65
2022-07-29T06:05:33.823Z,100720.45
2022-07-29T06:06:40.591Z,100719.20
2022-07-29T06:07:50.191Z,100715.04
2022-07-29T06:08:50.039Z,100703.55
2022-07-29T06:09:53.568Z,100699.31
2022-07-29T06:10:57.653Z,100704.22
2022-07-29T06:12:00.595Z,100696.22
2022-07-29T06:13:04.538Z,100698.78
2022-07-29T06:14:11.107Z,100696.95
2022-07-29T06:15:14.768Z,100688.27
2022-07-29T06:16:26.168Z,100692.13
2022-07-29T06:17:25.328Z,100695.03
2022-07-29T06:18:28.105Z,100690.58
2022-07-29T06:19:31.948Z,100689.17
2022-07-29T06:20:37.261Z,100685.31
2022-07-29T06:21:46.347Z,100680.92
2022-07-29T06:22:51.762Z,100686.82
2022-07-29T06:23:55.271Z,100696.26
2022-07-29T06:25:04.487Z,100689.92
2022-07-29T06:26:07.958Z,100696.01
2022-07-29T06:28:28.498Z,100702.14
2022-07-29T06:29:33.833Z,100702.97
2022-07-29T06:30:37.212Z,100706.37
2022-07-29T06:31:42.282Z,100719.15
2022-07-29T06:32:44.898Z,100718.32
2022-07-29T06:33:48.539Z,100714.63
2022-07-29T06:35:24.516Z,100714.17
2022-07-29T06:36:05.678Z,100722.55
2022-07-29T06:37:11.236Z,100724.91
2022-07-29T06:38:33.866Z,100720.76
2022-07-29T06:39:21.996Z,100722.56
2022-07-29T06:41:52.178Z,100714.56
2022-07-29T06:42:57.518Z,100710.70
2022-07-29T06:44:00.145Z,100718.80
2022-07-29T06:45:08.999Z,100721.21
2022-07-29T06:46:12.539Z,100723.00
2022-07-29T06:47:17.006Z,100727.94
2022-07-29T06:48:21.018Z,100728.09
2022-07-29T06:49:25.399Z,100726.31
2022-07-29T06:50:30.032Z,100734.05
2022-07-29T06:51:33.353Z,100733.41
2022-07-29T06:52:36.715Z,100726.52
2022-07-29T06:53:58.182Z,100729.68
2022-07-29T06:54:49.616Z,100729.83
2022-07-29T06:56:08.097Z,100738.02
2022-07-29T06:57:14.353Z,100731.82
2022-07-29T06:58:19.699Z,100725.64
2022-07-29T06:59:33.419Z,100730.80
2022-07-29T07:00:33.284Z,100723.88
2022-07-29T07:01:40.495Z,100732.67
2022-07-29T07:02:46.973Z,100724.34
2022-07-29T07:03:50.140Z,100725.10
2022-07-29T07:04:54.106Z,100731.77
2022-07-29T07:06:00.246Z,100727.34
2022-07-29T07:07:07.168Z,100727.98
2022-07-29T07:08:12.624Z,100735.45
2022-07-29T07:09:15.956Z,100720.09
2022-07-29T07:10:28.778Z,100728.95
2022-07-29T07:11:32.743Z,100728.92
2022-07-29T07:12:37.645Z,100727.97
2022-07-29T07:13:42.813Z,100728.77
2022-07-29T07:14:46.251Z,100730.77
2022-07-29T07:15:54.342Z,100730.68
2022-07-29T07:16:55.649Z,100724.87
2022-07-29T07:17:59.867Z,100733.34
2022-07-29T07:19:04.962Z,100729.27
2022-07-29T07:20:12.328Z,100721.34
2022-07-29T07:21:19.302Z,100732.30
2022-07-29T07:22:23.355Z,100724.29
2022-07-29T07:23:34.415Z,100735.03
2022-07-29T07:24:38.828Z,100727.52
2022-07-29T07:25:42.389Z,100731.30
2022-07-29T07:26:49.114Z,100742.13
2022-07-29T07:27:57.847Z,100739.89
2022-07-29T07:29:05.230Z,100738.39
2022-07-29T07:30:10.698Z,100741.70
2022-07-29T07:31:13.962Z,100733.88
2022-07-29T07:32:22.361Z,100734.50
2022-07-29T07:33:26.501Z,100732.45
2022-07-29T07:34:30.931Z,100730.89
2022-07-29T07:35:34.870Z,100732.50
2022-07-29T07:36:38.894Z,100728.36
2022-07-29T07:37:46.378Z,100734.54
2022-07-29T07:38:50.093Z,100737.19
2022-07-29T07:40:01.564Z,100732.17
2022-07-29T07:41:05.259Z,100735.60
2022-07-29T07:42:30.404Z,100741.38
2022-07-29T07:43:34.188Z,100728.44
2022-07-29T07:44:57.293Z,100742.70
2022-07-29T07:45:42.487Z,100739.39
2022-07-29T07:46:46.061Z,100738.33
2022-07-29T07:47:48.834Z,100735.30
2022-07-29T07:48:55.193Z,100734.55
2022-07-29T07:49:58.702Z,100733.00
2022-07-29T07:51:02.271Z,100734.38
2022-07-29T07:52:07.135Z,100736.95
2022-07-29T07:53:18.321Z,100733.06
2022-07-29T07:54:22.189Z,100738.73
2022-07-29T07:55:26.364Z,100731.84
2022-07-29T07:56:35.455Z,100733.73
2022-07-29T07:57:39.174Z,100728.89
2022-07-29T07:58:43.305Z,100726.72
2022-07-29T07:59:48.337Z,100729.34
2022-07-29T08:00:51.663Z,100729.83
2022-07-29T08:01:56.621Z,100730.62
2022-07-29T08:02:59.508Z,100725.41
2022-07-29T08:04:02.989Z,100726.85
2022-07-29T08:06:23.252Z,100726.37
2022-07-29T08:07:27.025Z,100732.73
2022-07-29T08:08:29.571Z,100726.28
2022-07-29T08:09:34.370Z,100718.42
2022-07-29T08:10:57.207Z,100721.48
2022-07-29T08:12:02.890Z,100729.80
2022-07-29T08:13:07.932Z,100719.34
2022-07-29T08:14:14.490Z,100720.01
2022-07-29T08:15:17.637Z,100724.60
2022-07-29T08:16:21.973Z,100723.03
2022-07-29T08:17:26.539Z,100727.57
2022-07-29T08:18:32.353Z,100733.33
2022-07-29T08:19:36.058Z,100716.80
2022-07-29T08:20:41.223Z,100716.80
2022-07-29T08:21:44.782Z,100714.30
2022-07-29T08:22:48.808Z,100706.75
2022-07-29T08:24:01.823Z,100713.73
2022-07-29T08:25:03.758Z,100719.74
2022-07-29T08:26:10.155Z,100716.75
2022-07-29T08:27:40.775Z,100708.45
2022-07-29T08:28:20.904Z,100711.37
2022-07-29T08:30:39.867Z,100716.97
2022-07-29T08:31:44.044Z,100712.33
2022-07-29T08:32:54.881Z,100705.79
2022-07-29T08:34:04.763Z,100706.89
2022-07-29T08:35:10.958Z,100703.87
2022-07-29T08:36:16.091Z,100701.44
2022-07-29T08:37:19.976Z,100699.30
2022-07-29T08:38:23.936Z,100705.49
2022-07-29T08:39:27.422Z,100699.92
2022-07-29T08:40:34.605Z,100706.69
2022-07-29T08:41:39.219Z,100705.66
2022-07-29T08:42:42.729Z,100701.34
2022-07-29T08:43:49.919Z,100702.75
2022-07-29T08:44:56.043Z,100702.38
2022-07-29T08:46:02.715Z,100710.89
2022-07-29T08:47:06.969Z,100706.75
2022-07-29T08:48:17.248Z,100709.82
2022-07-29T08:49:21.260Z,100700.95
2022-07-29T08:50:28.960Z,100703.45
2022-07-29T08:51:35.275Z,100708.70
2022-07-29T08:52:44.003Z,100702.86
2022-07-29T08:53:53.342Z,100702.80
2022-07-29T08:54:57.035Z,100692.46
2022-07-29T08:56:00.400Z,100697.59
2022-07-29T08:57:04.692Z,100704.06
2022-07-29T08:58:11.152Z,100704.59
2022-07-29T08:59:14.818Z,100702.05
2022-07-29T09:00:18.749Z,100706.66
2022-07-29T09:01:36.548Z,100693.02
2022-07-29T09:02:39.354Z,100693.47
2022-07-29T09:03:45.917Z,100701.90
2022-07-29T09:04:51.112Z,100699.13
2022-07-29T09:07:12.403Z,100691.00
2022-07-29T09:08:17.226Z,100696.09
2022-07-29T09:09:21.581Z,100698.99
2022-07-29T09:10:26.142Z,100695.53
2022-07-29T09:11:30.207Z,100692.98
2022-07-29T09:12:37.962Z,100688.45
2022-07-29T09:13:42.076Z,100691.22
2022-07-29T09:14:46.605Z,100697.47
2022-07-29T09:15:50.594Z,100693.72
2022-07-29T09:17:00.113Z,100689.80
2022-07-29T09:18:07.631Z,100689.80
2022-07-29T09:20:57.248Z,100689.86
2022-07-29T09:22:03.836Z,100685.20
2022-07-29T09:23:09.869Z,100687.16
2022-07-29T09:24:16.443Z,100683.53
2022-07-29T09:25:42.605Z,100681.86
2022-07-29T09:26:47.685Z,100683.22
2022-07-29T09:27:51.394Z,100684.10
2022-07-29T09:28:57.906Z,100685.36
2022-07-29T09:30:04.024Z,100692.16
2022-07-29T09:31:09.557Z,100679.62
2022-07-29T09:32:13.774Z,100686.64
2022-07-29T09:33:17.488Z,100679.03
2022-07-29T09:34:40.789Z,100686.86
2022-07-29T09:35:56.361Z,100684.90
2022-07-29T09:36:53.369Z,100683.20
2022-07-29T09:37:58.590Z,100687.41
2022-07-29T09:39:04.672Z,100683.69
2022-07-29T09:40:18.234Z,100685.59
2022-07-29T09:42:40.009Z,100683.38
2022-07-29T09:43:49.750Z,100673.98
2022-07-29T09:44:53.739Z,100688.72
2022-07-29T09:45:57.176Z,100682.45
2022-07-29T09:47:10.382Z,100671.00
2022-07-29T09:48:25.217Z,100683.28
2022-07-29T09:49:27.950Z,100682.09
2022-07-29T09:50:42.600Z,100672.41
2022-07-29T09:51:46.730Z,100683.22
2022-07-29T09:52:54.029Z,100683.91
2022-07-29T09:53:59.383Z,100675.66
2022-07-29T09:55:07.521Z,100671.63
2022-07-29T09:56:12.031Z,100678.37
2022-07-29T09:57:37.797Z,100673.69
2022-07-29T09:58:44.632Z,100670.43
2022-07-29T09:59:59.662Z,100667.28
2022-07-29T10:01:03.647Z,100668.21
2022-07-29T10:02:16.727Z,100658.64
2022-07-29T10:03:26.293Z,100664.69
2022-07-29T10:04:41.234Z,100669.05
2022-07-29T10:05:46.776Z,100673.06
2022-07-29T10:07:07.170Z,100661.42
2022-07-29T10:08:16.526Z,100661.42
2022-07-29T10:09:19.240Z,100664.86
2022-07-29T10:11:49.181Z,100662.52
2022-07-29T10:12:54.452Z,100660.56
2022-07-29T10:13:59.706Z,100660.58
2022-07-29T10:15:05.757Z,100654.58
2022-07-29T10:16:11.069Z,100652.42
2022-07-29T10:17:14.730Z,100651.73
2022-07-29T10:18:23.812Z,100662.27
2022-07-29T10:19:34.357Z,100657.44
2022-07-29T10:20:41.814Z,100659.94
2022-07-29T10:21:45.806Z,100660.91
2022-07-29T10:22:54.702Z,100653.28
2022-07-29T10:24:04.221Z,100655.34
2022-07-29T10:25:11.839Z,100651.16
2022-07-29T10:26:18.237Z,100653.21
2022-07-29T10:27:21.363Z,100644.30
2022-07-29T10:28:26.477Z,100645.36
2022-07-29T10:29:39.896Z,100651.26
2022-07-29T10:30:47.334Z,100647.26
2022-07-29T10:32:28.116Z,100645.12
2022-07-29T10:35:13.173Z,100637.84
2022-07-29T10:36:36.100Z,100641.52
2022-07-29T10:37:59.427Z,100638.68
2022-07-29T10:39:22.330Z,100634.94
2022-07-29T10:40:52.876Z,100638.33
2022-07-29T10:42:16.954Z,100635.52
2022-07-29T10:43:25.791Z,100638.34
2022-07-29T10:44:31.265Z,100638.33
2022-07-29T10:45:35.609Z,100633.86
2022-07-29T10:46:42.879Z,100626.67
2022-07-29T10:47:46.375Z,100628.23
2022-07-29T10:49:15.315Z,100625.36
2022-07-29T10:50:18.496Z,100621.41
2022-07-29T10:51:25.124Z,100624.55
2022-07-29T10:52:56.935Z,100616.53
2022-07-29T10:54:01.966Z,100622.64
2022-07-29T10:55:07.004Z,100626.70
2022-07-29T10:57:53.569Z,100623.92
2022-07-29T10:59:25.609Z,100627.16
2022-07-29T11:00:33.152Z,100625.77
2022-07-29T11:01:39.298Z,100626.95
2022-07-29T11:02:46.433Z,100623.56
2022-07-29T11:03:57.222Z,100623.31
2022-07-29T11:05:15.442Z,100620.56
2022-07-29T11:06:26.848Z,100620.89
2022-07-29T11:07:42.650Z,100618.53
2022-07-29T11:08:36.733Z,100624.28
2022-07-29T11:09:43.875Z,100629.43
2022-07-29T11:10:56.099Z,100618.21
2022-07-29T11:12:04.074Z,100613.39
2022-07-29T11:13:07.788Z,100618.89
2022-07-29T11:14:10.682Z,100619.97
2022-07-29T11:15:20.680Z,100623.72
2022-07-29T11:17:47.260Z,100613.89
2022-07-29T11:18:38.114Z,100616.64
2022-07-29T11:19:51.992Z,100614.59
2022-07-29T11:20:54.160Z,100620.59
2022-07-29T11:22:00.110Z,100628.11
2022-07-29T11:23:22.406Z,100616.86
2022-07-29T11:24:35.369Z,100614.58
2022-07-29T11:25:42.830Z,100607.47
2022-07-29T11:27:54.202Z,100612.92
2022-07-29T11:29:09.001Z,100612.81
2022-07-29T11:30:14.527Z,100606.86
2022-07-29T11:31:40.514Z,100605.17
2022-07-29T11:32:48.765Z,100615.12
2022-07-29T11:33:56.889Z,100608.44
2022-07-29T11:35:38.123Z,100601.61
2022-07-29T11:36:36.791Z,100609.97
2022-07-29T11:37:42.546Z,100610.94
2022-07-29T11:38:47.885Z,100601.55
2022-07-29T11:40:01.976Z,100607.64
2022-07-29T11:41:27.426Z,100613.37
2022-07-29T11:42:42.015Z,100609.91
2022-07-29T11:43:52.838Z,100597.10
2022-07-29T11:45:08.444Z,100597.71
2022-07-29T11:46:09.228Z,100596.45
2022-07-29T11:47:14.297Z,100590.76
2022-07-29T11:48:28.069Z,100590.03
2022-07-29T11:49:31.602Z,100592.31
2022-07-29T11:50:44.364Z,100588.48
2022-07-29T11:51:49.161Z,100587.02
2022-07-29T11:52:56.787Z,100589.02
2022-07-29T11:54:05.304Z,100585.07
2022-07-29T11:55:11.984Z,100580.95
2022-07-29T11:56:19.890Z,100581.42
2022-07-29T11:57:35.954Z,100586.70
2022-07-29T11:58:34.469Z,100576.64
2022-07-29T11:59:43.305Z,100585.38
2022-07-29T12:00:48.454Z,100576.23
2022-07-29T12:27:29.382Z,100550.83
2022-07-29T12:30:03.986Z,100561.73
2022-07-29T12:31:08.503Z,100564.11
2022-07-29T12:32:14.412Z,100562.65
2022-07-29T12:33:32.275Z,100560.28
2022-07-29T12:34:37.662Z,100553.42
2022-07-29T12:35:41.985Z,100558.08
2022-07-29T12:36:46.179Z,100556.03
2022-07-29T12:37:53.287Z,100560.34
2022-07-29T12:39:05.552Z,100560.58
2022-07-29T12:40:13.933Z,100553.23
2022-07-29T12:41:18.063Z,100568.56
2022-07-29T12:42:20.729Z,100561.77
2022-07-29T12:43:28.152Z,100561.89
2022-07-29T12:44:48.996Z,100566.44
2022-07-29T12:45:57.251Z,100564.02
2022-07-29T12:47:04.903Z,100562.98
2022-07-29T12:48:13.386Z,100560.80
2022-07-29T12:49:23.360Z,100563.80
2022-07-29T12:50:29.237Z,100558.42
2022-07-29T12:51:38.842Z,100560.06
2022-07-29T12:52:43.464Z,100563.73
2022-07-29T12:54:09.391Z,100560.33
2022-07-29T12:55:12.653Z,100557.84
2022-07-29T12:56:41.766Z,100562.02
2022-07-29T12:57:26.511Z,100562.37
2022-07-29T12:58:38.164Z,100539.84
2022-07-29T12:59:41.831Z,100543.16
2022-07-29T13:00:45.633Z,100547.94
2022-07-29T13:01:53.681Z,100541.35
2022-07-29T13:02:59.668Z,100543.71
2022-07-29T13:04:07.621Z,100548.25
2022-07-29T13:05:14.523Z,100543.73
2022-07-29T13:06:42.116Z,100546.02
2022-07-29T13:07:55.483Z,100541.95
2022-07-29T13:09:07.005Z,100541.93
2022-07-29T13:10:13.966Z,100543.14
2022-07-29T13:11:36.581Z,100540.03
2022-07-29T13:12:40.962Z,100540.98
2022-07-29T13:14:06.873Z,100537.50
2022-07-29T13:15:00.095Z,100535.48
2022-07-29T13:16:10.338Z,100534.39
2022-07-29T13:17:19.609Z,100532.49
2022-07-29T13:18:39.534Z,100533.56
2022-07-29T13:19:48.678Z,100532.37
2022-07-29T13:20:52.509Z,100534.50
2022-07-29T13:21:56.865Z,100537.28
2022-07-29T13:23:03.320Z,100539.29
2022-07-29T13:24:11.157Z,100524.48
2022-07-29T13:25:15.393Z,100533.44
2022-07-29T13:26:21.442Z,100533.93
2022-07-29T13:27:31.945Z,100528.87
2022-07-29T13:28:38.418Z,100528.42
2022-07-29T13:29:41.112Z,100536.42
2022-07-29T13:30:45.396Z,100494.63
2022-07-29T13:31:49.028Z,100520.28
2022-07-29T13:34:15.974Z,100513.14
2022-07-29T13:35:21.833Z,100515.05
2022-07-29T13:36:29.973Z,100515.27
2022-07-29T13:37:38.422Z,100516.13
2022-07-29T13:39:54.019Z,100510.61
2022-07-29T13:41:01.288Z,100517.44
2022-07-29T13:42:10.754Z,100513.02
2022-07-29T13:43:13.251Z,100509.19
2022-07-29T13:44:16.812Z,100511.56
2022-07-29T13:45:20.492Z,100506.53
2022-07-29T13:46:27.658Z,100508.59
2022-07-29T13:47:32.206Z,100520.77
2022-07-29T13:48:36.308Z,100528.42
2022-07-29T13:49:43.318Z,100520.77
2022-07-29T13:50:52.634Z,100518.52
2022-07-29T13:51:59.262Z,100520.38
2022-07-29T13:53:06.432Z,100518.27
2022-07-29T13:54:09.281Z,100522.09
2022-07-29T13:55:13.519Z,100522.42
2022-07-29T13:56:18.822Z,100517.16
2022-07-29T13:57:26.900Z,100516.78
2022-07-29T13:58:30.808Z,100514.52
2022-07-29T13:59:34.610Z,100515.11
2022-07-29T14:00:45.141Z,100517.63
2022-07-29T14:01:50.661Z,100513.89
2022-07-29T14:02:54.031Z,100508.37
2022-07-29T14:03:57.721Z,100510.38
2022-07-29T14:05:04.941Z,100509.45
2022-07-29T14:06:06.916Z,100507.31
2022-07-29T14:07:11.397Z,100509.09
2022-07-29T14:08:16.843Z,100510.12
2022-07-29T14:09:19.672Z,100508.48